sensor_id;sensor_type;location;lat;lon;timestamp;pressure;altitude;pressure_sealevel;temperature;humidity
61357;BME280;47227;46.752;23.576;2022-08-19T00:01:18;96081.82;;;19.13;67.93
61357;BME280;47227;46.752;23.576;2022-08-19T01:35:38;96108.39;;;18.69;70.46
61357;BME280;47227;46.752;23.576;2022-08-19T01:38:07;96112.80;;;18.69;70.16
61357;BME280;47227;46.752;23.576;2022-08-19T01:40:38;96106.27;;;18.68;70.24
61357;BME280;47227;46.752;23.576;2022-08-19T01:43:06;96099.67;;;18.66;70.49
61357;BME280;47227;46.752;23.576;2022-08-19T01:45:34;96097.98;;;18.64;70.55
61357;BME280;47227;46.752;23.576;2022-08-19T01:48:02;96098.58;;;18.61;70.48
61357;BME280;47227;46.752;23.576;2022-08-19T01:50:32;96098.10;;;18.59;70.31
61357;BME280;47227;46.752;23.576;2022-08-19T01:52:59;96097.95;;;18.58;70.48
61357;BME280;47227;46.752;23.576;2022-08-19T01:55:34;96107.15;;;18.56;70.39
61357;BME280;47227;46.752;23.576;2022-08-19T01:58:14;96106.03;;;18.53;70.48
61357;BME280;47227;46.752;23.576;2022-08-19T02:00:42;96103.26;;;18.50;70.75
61357;BME280;47227;46.752;23.576;2022-08-19T02:03:09;96104.20;;;18.46;70.97
61357;BME280;47227;46.752;23.576;2022-08-19T02:05:38;96113.14;;;18.43;71.51
61357;BME280;47227;46.752;23.576;2022-08-19T02:08:05;96120.70;;;18.40;71.72
61357;BME280;47227;46.752;23.576;2022-08-19T02:10:31;96118.31;;;18.34;71.56
61357;BME280;47227;46.752;23.576;2022-08-19T02:12:58;96109.58;;;18.31;71.70
61357;BME280;47227;46.752;23.576;2022-08-19T02:15:26;96108.42;;;18.30;71.65
61357;BME280;47227;46.752;23.576;2022-08-19T02:17:52;96117.16;;;18.34;71.85
61357;BME280;47227;46.752;23.576;2022-08-19T02:20:20;96118.52;;;18.32;71.80
61357;BME280;47227;46.752;23.576;2022-08-19T02:22:46;96112.05;;;18.27;71.63
61357;BME280;47227;46.752;23.576;2022-08-19T02:25:14;96106.49;;;18.24;71.70
61357;BME280;47227;46.752;23.576;2022-08-19T02:27:42;96112.84;;;18.21;71.85
61357;BME280;47227;46.752;23.576;2022-08-19T02:30:13;96110.19;;;18.15;71.66
61357;BME280;47227;46.752;23.576;2022-08-19T02:32:40;96108.90;;;18.09;71.63
61357;BME280;47227;46.752;23.576;2022-08-19T02:35:20;96104.05;;;18.05;71.73
61357;BME280;47227;46.752;23.576;2022-08-19T02:37:47;96106.92;;;18.02;72.06
61357;BME280;47227;46.752;23.576;2022-08-19T02:40:26;96110.00;;;17.98;72.03
61357;BME280;47227;46.752;23.576;2022-08-19T02:42:53;96110.92;;;17.94;72.57
61357;BME280;47227;46.752;23.576;2022-08-19T02:45:20;96112.14;;;17.91;72.89
61357;BME280;47227;46.752;23.576;2022-08-19T02:47:46;96118.57;;;17.88;72.48
61357;BME280;47227;46.752;23.576;2022-08-19T02:50:13;96119.86;;;17.85;72.39
61357;BME280;47227;46.752;23.576;2022-08-19T03:05:05;96125.21;;;17.85;73.89
61357;BME280;47227;46.752;23.576;2022-08-19T03:31:11;96134.21;;;17.95;74.35
61357;BME280;47227;46.752;23.576;2022-08-19T03:34:04;96138.01;;;17.93;74.18
61357;BME280;47227;46.752;23.576;2022-08-19T03:36:51;96137.70;;;17.90;74.25
61357;BME280;47227;46.752;23.576;2022-08-19T03:39:23;96136.97;;;17.86;74.16
61357;BME280;47227;46.752;23.576;2022-08-19T03:42:08;96141.08;;;17.83;74.82
61357;BME280;47227;46.752;23.576;2022-08-19T03:45:10;96139.13;;;17.73;74.28
61357;BME280;47227;46.752;23.576;2022-08-19T03:48:02;96135.25;;;17.65;76.10
61357;BME280;47227;46.752;23.576;2022-08-19T03:50:41;96136.36;;;17.60;75.35
61357;BME280;47227;46.752;23.576;2022-08-19T03:53:20;96142.27;;;17.56;75.11
61357;BME280;47227;46.752;23.576;2022-08-19T03:56:04;96147.80;;;17.52;75.00
61357;BME280;47227;46.752;23.576;2022-08-19T03:58:47;96143.86;;;17.48;75.46
61357;BME280;47227;46.752;23.576;2022-08-19T04:01:31;96143.41;;;17.46;75.42
61357;BME280;47227;46.752;23.576;2022-08-19T04:04:30;96146.64;;;17.49;75.59
61357;BME280;47227;46.752;23.576;2022-08-19T04:07:15;96152.20;;;17.53;75.53
61357;BME280;47227;46.752;23.576;2022-08-19T04:09:55;96147.79;;;17.59;75.55
61357;BME280;47227;46.752;23.576;2022-08-19T04:12:36;96151.18;;;17.64;75.29
61357;BME280;47227;46.752;23.576;2022-08-19T04:15:10;96161.45;;;17.70;75.32
61357;BME280;47227;46.752;23.576;2022-08-19T04:17:39;96164.08;;;17.75;75.40
61357;BME280;47227;46.752;23.576;2022-08-19T04:20:09;96159.58;;;17.78;75.15
61357;BME280;47227;46.752;23.576;2022-08-19T04:22:41;96157.56;;;17.82;75.40
61357;BME280;47227;46.752;23.576;2022-08-19T04:25:15;96163.67;;;17.86;75.24
61357;BME280;47227;46.752;23.576;2022-08-19T04:27:49;96171.59;;;17.93;75.28
61357;BME280;47227;46.752;23.576;2022-08-19T04:30:24;96172.30;;;17.95;75.00
61357;BME280;47227;46.752;23.576;2022-08-19T04:33:25;96172.96;;;17.93;74.94
61357;BME280;47227;46.752;23.576;2022-08-19T05:20:17;96152.08;;;18.73;74.74
61357;BME280;47227;46.752;23.576;2022-08-19T05:43:50;96158.38;;;19.01;73.27
61357;BME280;47227;46.752;23.576;2022-08-19T05:46:30;96156.38;;;19.07;73.02
61357;BME280;47227;46.752;23.576;2022-08-19T05:49:11;96154.48;;;19.13;72.93
61357;BME280;47227;46.752;23.576;2022-08-19T05:51:41;96159.60;;;19.15;72.60
61357;BME280;47227;46.752;23.576;2022-08-19T05:54:13;96160.70;;;19.19;72.63
61357;BME280;47227;46.752;23.576;2022-08-19T05:56:49;96159.89;;;19.24;72.54
61357;BME280;47227;46.752;23.576;2022-08-19T05:59:25;96162.29;;;19.28;72.88
61357;BME280;47227;46.752;23.576;2022-08-19T06:02:20;96159.75;;;19.35;72.43
61357;BME280;47227;46.752;23.576;2022-08-19T06:04:50;96161.13;;;19.41;72.68
61357;BME280;47227;46.752;23.576;2022-08-19T06:07:19;96160.37;;;19.50;72.44
61357;BME280;47227;46.752;23.576;2022-08-19T06:13:01;96158.21;;;19.76;72.41
61357;BME280;47227;46.752;23.576;2022-08-19T06:18:39;96152.46;;;20.06;71.86
61357;BME280;47227;46.752;23.576;2022-08-19T06:21:08;96150.29;;;20.24;71.85
61357;BME280;47227;46.752;23.576;2022-08-19T06:23:57;96153.38;;;20.43;71.71
61357;BME280;47227;46.752;23.576;2022-08-19T06:27:23;96143.48;;;20.64;71.43
61357;BME280;47227;46.752;23.576;2022-08-19T06:30:14;96145.66;;;20.83;71.06
61357;BME280;47227;46.752;23.576;2022-08-19T06:32:46;96150.91;;;20.96;70.54
61357;BME280;47227;46.752;23.576;2022-08-19T06:35:22;96157.23;;;21.05;70.02
61357;BME280;47227;46.752;23.576;2022-08-19T06:38:04;96159.88;;;21.11;69.90
61357;BME280;47227;46.752;23.576;2022-08-19T06:41:09;96164.79;;;21.23;69.75
61357;BME280;47227;46.752;23.576;2022-08-19T07:03:29;96170.49;;;21.87;68.01
61357;BME280;47227;46.752;23.576;2022-08-19T07:07:02;96168.56;;;21.90;67.49
61357;BME280;47227;46.752;23.576;2022-08-19T07:11:00;96179.05;;;22.03;67.12
61357;BME280;47227;46.752;23.576;2022-08-19T07:14:11;96179.08;;;22.17;67.13
61357;BME280;47227;46.752;23.576;2022-08-19T07:18:10;96183.40;;;22.35;66.96
61357;BME280;47227;46.752;23.576;2022-08-19T08:25:06;96162.37;;;25.62;57.56
61357;BME280;47227;46.752;23.576;2022-08-19T08:27:38;96159.51;;;26.08;56.62
61357;BME280;47227;46.752;23.576;2022-08-19T08:30:19;96164.82;;;26.22;56.63
61357;BME280;47227;46.752;23.576;2022-08-19T08:33:27;96162.39;;;26.35;55.90
61357;BME280;47227;46.752;23.576;2022-08-19T08:36:13;96166.25;;;26.47;54.79
61357;BME280;47227;46.752;23.576;2022-08-19T08:38:46;96164.90;;;26.55;53.79
61357;BME280;47227;46.752;23.576;2022-08-19T08:47:34;96165.77;;;26.83;51.19
61357;BME280;47227;46.752;23.576;2022-08-19T08:50:21;96164.14;;;26.91;52.01
61357;BME280;47227;46.752;23.576;2022-08-19T08:52:56;96159.23;;;27.03;52.25
61357;BME280;47227;46.752;23.576;2022-08-19T08:55:28;96157.27;;;27.14;52.39
61357;BME280;47227;46.752;23.576;2022-08-19T08:58:09;96153.46;;;27.28;52.56
61357;BME280;47227;46.752;23.576;2022-08-19T09:00:45;96145.07;;;27.42;51.65
61357;BME280;47227;46.752;23.576;2022-08-19T09:03:24;96141.42;;;27.54;50.84
61357;BME280;47227;46.752;23.576;2022-08-19T09:06:03;96140.77;;;27.67;51.00
61357;BME280;47227;46.752;23.576;2022-08-19T09:12:05;96135.66;;;27.93;48.38
61357;BME280;47227;46.752;23.576;2022-08-19T09:14:51;96132.81;;;28.04;48.76
61357;BME280;47227;46.752;23.576;2022-08-19T09:17:26;96135.48;;;28.19;49.03
61357;BME280;47227;46.752;23.576;2022-08-19T09:20:03;96131.79;;;28.31;48.50
61357;BME280;47227;46.752;23.576;2022-08-19T09:22:38;96127.52;;;28.46;47.82
61357;BME280;47227;46.752;23.576;2022-08-19T09:25:09;96122.72;;;28.57;46.78
61357;BME280;47227;46.752;23.576;2022-08-19T09:27:39;96126.88;;;28.69;47.29
61357;BME280;47227;46.752;23.576;2022-08-19T09:30:17;96133.11;;;28.81;47.17
61357;BME280;47227;46.752;23.576;2022-08-19T09:32:45;96129.73;;;28.92;46.65
61357;BME280;47227;46.752;23.576;2022-08-19T09:35:21;96127.08;;;29.03;46.03
61357;BME280;47227;46.752;23.576;2022-08-19T09:37:51;96122.29;;;29.16;45.39
61357;BME280;47227;46.752;23.576;2022-08-19T09:40:28;96124.50;;;29.29;44.31
61357;BME280;47227;46.752;23.576;2022-08-19T09:43:02;96125.55;;;29.44;44.47
61357;BME280;47227;46.752;23.576;2022-08-19T09:45:43;96130.27;;;29.57;42.56
61357;BME280;47227;46.752;23.576;2022-08-19T09:48:11;96129.69;;;29.66;42.12
61357;BME280;47227;46.752;23.576;2022-08-19T09:50:50;96130.68;;;29.75;40.76
61357;BME280;47227;46.752;23.576;2022-08-19T09:53:19;96128.06;;;29.68;39.71
61357;BME280;47227;46.752;23.576;2022-08-19T09:55:55;96130.34;;;29.56;39.49
61357;BME280;47227;46.752;23.576;2022-08-19T09:58:23;96130.92;;;29.67;40.93
61357;BME280;47227;46.752;23.576;2022-08-19T10:00:57;96124.39;;;29.82;41.04
61357;BME280;47227;46.752;23.576;2022-08-19T10:03:27;96124.35;;;30.00;41.02
61357;BME280;47227;46.752;23.576;2022-08-19T10:06:03;96123.45;;;30.20;40.83
61357;BME280;47227;46.752;23.576;2022-08-19T10:08:42;96120.38;;;30.35;40.71
61357;BME280;47227;46.752;23.576;2022-08-19T10:11:19;96113.34;;;30.51;41.16
61357;BME280;47227;46.752;23.576;2022-08-19T10:14:03;96112.85;;;30.66;39.14
61357;BME280;47227;46.752;23.576;2022-08-19T10:16:40;96110.73;;;30.77;39.23
61357;BME280;47227;46.752;23.576;2022-08-19T10:19:09;96105.73;;;30.89;38.93
61357;BME280;47227;46.752;23.576;2022-08-19T10:21:37;96109.25;;;31.01;38.30
61357;BME280;47227;46.752;23.576;2022-08-19T10:24:07;96109.82;;;31.15;38.11
61357;BME280;47227;46.752;23.576;2022-08-19T10:26:38;96105.88;;;31.27;37.25
61357;BME280;47227;46.752;23.576;2022-08-19T10:29:10;96102.41;;;31.41;36.97
61357;BME280;47227;46.752;23.576;2022-08-19T10:31:39;96093.13;;;31.51;36.91
61357;BME280;47227;46.752;23.576;2022-08-19T10:34:37;96093.11;;;31.69;36.40
61357;BME280;47227;46.752;23.576;2022-08-19T10:37:17;96093.31;;;31.87;35.31
61357;BME280;47227;46.752;23.576;2022-08-19T10:39:58;96092.20;;;32.06;34.75
61357;BME280;47227;46.752;23.576;2022-08-19T10:42:26;96091.45;;;32.24;34.58
61357;BME280;47227;46.752;23.576;2022-08-19T10:45:03;96084.96;;;32.42;34.01
61357;BME280;47227;46.752;23.576;2022-08-19T10:47:34;96086.59;;;32.59;33.33
61357;BME280;47227;46.752;23.576;2022-08-19T10:50:04;96088.75;;;32.78;32.69
61357;BME280;47227;46.752;23.576;2022-08-19T10:52:48;96093.16;;;32.96;30.99
61357;BME280;47227;46.752;23.576;2022-08-19T10:55:23;96090.58;;;33.12;30.82
61357;BME280;47227;46.752;23.576;2022-08-19T10:58:13;96086.13;;;33.26;31.60
61357;BME280;47227;46.752;23.576;2022-08-19T11:00:42;96088.00;;;33.45;31.80
61357;BME280;47227;46.752;23.576;2022-08-19T11:03:11;96086.36;;;33.65;31.56
61357;BME280;47227;46.752;23.576;2022-08-19T11:05:40;96081.52;;;33.85;31.99
61357;BME280;47227;46.752;23.576;2022-08-19T11:08:09;96086.72;;;34.16;31.34
61357;BME280;47227;46.752;23.576;2022-08-19T11:10:54;96087.13;;;34.41;29.64
61357;BME280;47227;46.752;23.576;2022-08-19T11:13:25;96087.22;;;34.61;29.01
61357;BME280;47227;46.752;23.576;2022-08-19T11:15:59;96085.79;;;34.80;29.08
61357;BME280;47227;46.752;23.576;2022-08-19T11:18:36;96086.98;;;35.11;28.39
61357;BME280;47227;46.752;23.576;2022-08-19T11:21:07;96086.15;;;35.31;28.02
61357;BME280;47227;46.752;23.576;2022-08-19T11:23:35;96086.76;;;35.51;27.19
61357;BME280;47227;46.752;23.576;2022-08-19T11:26:04;96089.48;;;35.76;27.14
61357;BME280;47227;46.752;23.576;2022-08-19T11:28:32;96086.34;;;35.94;26.36
61357;BME280;47227;46.752;23.576;2022-08-19T11:31:00;96083.26;;;36.09;26.38
61357;BME280;47227;46.752;23.576;2022-08-19T11:33:31;96082.91;;;36.32;26.32
61357;BME280;47227;46.752;23.576;2022-08-19T11:36:00;96079.40;;;36.35;25.17
61357;BME280;47227;46.752;23.576;2022-08-19T11:38:29;96077.33;;;36.22;25.62
61357;BME280;47227;46.752;23.576;2022-08-19T11:41:00;96080.55;;;36.52;26.09
61357;BME280;47227;46.752;23.576;2022-08-19T11:43:37;96078.77;;;36.81;25.00
61357;BME280;47227;46.752;23.576;2022-08-19T11:46:11;96082.60;;;37.09;25.20
61357;BME280;47227;46.752;23.576;2022-08-19T11:48:52;96083.63;;;37.39;23.70
61357;BME280;47227;46.752;23.576;2022-08-19T11:54:05;96076.30;;;37.89;23.69
61357;BME280;47227;46.752;23.576;2022-08-19T11:56:33;96072.33;;;37.99;23.52
61357;BME280;47227;46.752;23.576;2022-08-19T11:59:20;96072.73;;;38.22;23.11
61357;BME280;47227;46.752;23.576;2022-08-19T12:19:36;96055.55;;;39.06;21.58
61357;BME280;47227;46.752;23.576;2022-08-19T12:33:14;96046.27;;;40.65;19.85
61357;BME280;47227;46.752;23.576;2022-08-19T12:35:45;96039.92;;;41.38;18.02
61357;BME280;47227;46.752;23.576;2022-08-19T12:38:14;96036.56;;;41.37;18.18
61357;BME280;47227;46.752;23.576;2022-08-19T12:40:47;96036.66;;;41.44;18.20
61357;BME280;47227;46.752;23.576;2022-08-19T12:43:18;96034.05;;;41.41;17.26
61357;BME280;47227;46.752;23.576;2022-08-19T12:45:48;96029.25;;;41.29;18.09
61357;BME280;47227;46.752;23.576;2022-08-19T12:48:16;96027.77;;;41.57;18.18
61357;BME280;47227;46.752;23.576;2022-08-19T12:51:09;96024.34;;;41.74;18.02
61357;BME280;47227;46.752;23.576;2022-08-19T12:53:40;96019.98;;;41.87;18.76
61357;BME280;47227;46.752;23.576;2022-08-19T12:56:11;96017.41;;;41.77;18.22
61357;BME280;47227;46.752;23.576;2022-08-19T12:58:41;96014.06;;;42.00;18.40
61357;BME280;47227;46.752;23.576;2022-08-19T13:01:19;96009.29;;;41.76;17.15
61357;BME280;47227;46.752;23.576;2022-08-19T13:03:51;96010.21;;;41.60;17.64
61357;BME280;47227;46.752;23.576;2022-08-19T13:10:47;96007.55;;;42.14;17.02
61357;BME280;47227;46.752;23.576;2022-08-19T13:13:45;95998.44;;;41.92;17.13
61357;BME280;47227;46.752;23.576;2022-08-19T13:17:28;95994.25;;;41.77;17.73
61357;BME280;47227;46.752;23.576;2022-08-19T13:20:44;95998.64;;;42.47;17.93
61357;BME280;47227;46.752;23.576;2022-08-19T13:24:12;95992.65;;;42.68;16.81
61357;BME280;47227;46.752;23.576;2022-08-19T13:26:54;95990.60;;;42.97;17.61
61357;BME280;47227;46.752;23.576;2022-08-19T13:29:24;95989.80;;;43.06;16.87
61357;BME280;47227;46.752;23.576;2022-08-19T13:32:24;95987.38;;;42.47;16.37
61357;BME280;47227;46.752;23.576;2022-08-19T13:35:11;95978.89;;;42.64;17.39
61357;BME280;47227;46.752;23.576;2022-08-19T13:37:50;95977.73;;;43.14;17.29
61357;BME280;47227;46.752;23.576;2022-08-19T13:40:33;95977.90;;;43.25;16.42
61357;BME280;47227;46.752;23.576;2022-08-19T13:43:42;95973.87;;;43.27;16.22
61357;BME280;47227;46.752;23.576;2022-08-19T13:46:25;95977.89;;;43.60;16.07
61357;BME280;47227;46.752;23.576;2022-08-19T13:49:18;95974.55;;;43.77;16.42
61357;BME280;47227;46.752;23.576;2022-08-19T13:51:59;95974.50;;;43.46;15.83
61357;BME280;47227;46.752;23.576;2022-08-19T13:54:33;95975.04;;;43.40;15.67
61357;BME280;47227;46.752;23.576;2022-08-19T13:57:06;95973.34;;;43.56;15.83
61357;BME280;47227;46.752;23.576;2022-08-19T13:59:44;95970.13;;;43.94;15.54
61357;BME280;47227;46.752;23.576;2022-08-19T14:02:15;95973.61;;;44.12;15.53
61357;BME280;47227;46.752;23.576;2022-08-19T14:04:47;95972.17;;;44.28;15.48
61357;BME280;47227;46.752;23.576;2022-08-19T14:07:18;95973.04;;;44.36;15.16
61357;BME280;47227;46.752;23.576;2022-08-19T14:09:50;95971.80;;;44.25;15.20
61357;BME280;47227;46.752;23.576;2022-08-19T14:12:21;95969.06;;;43.36;15.64
61357;BME280;47227;46.752;23.576;2022-08-19T14:15:12;95964.68;;;42.44;16.50
61357;BME280;47227;46.752;23.576;2022-08-19T14:17:46;95965.92;;;42.39;16.71
61357;BME280;47227;46.752;23.576;2022-08-19T14:20:19;95964.46;;;42.81;16.51
61357;BME280;47227;46.752;23.576;2022-08-19T14:23:13;95961.81;;;43.42;16.14
61357;BME280;47227;46.752;23.576;2022-08-19T14:25:43;95960.09;;;43.83;15.57
61357;BME280;47227;46.752;23.576;2022-08-19T14:28:43;95965.20;;;44.30;15.64
61357;BME280;47227;46.752;23.576;2022-08-19T14:31:15;95966.11;;;44.73;15.22
61357;BME280;47227;46.752;23.576;2022-08-19T14:34:23;95968.54;;;45.00;14.69
61357;BME280;47227;46.752;23.576;2022-08-19T14:37:17;95965.63;;;45.16;14.53
61357;BME280;47227;46.752;23.576;2022-08-19T14:40:35;95961.61;;;45.34;13.97
61357;BME280;47227;46.752;23.576;2022-08-19T14:43:06;95964.72;;;45.23;14.17
61357;BME280;47227;46.752;23.576;2022-08-19T14:45:56;95966.95;;;45.32;14.54
61357;BME280;47227;46.752;23.576;2022-08-19T14:48:43;95966.70;;;45.28;14.22
61357;BME280;47227;46.752;23.576;2022-08-19T14:51:12;95963.38;;;45.33;14.13
61357;BME280;47227;46.752;23.576;2022-08-19T14:53:40;95963.72;;;45.53;13.66
61357;BME280;47227;46.752;23.576;2022-08-19T14:56:11;95958.71;;;45.43;13.73
61357;BME280;47227;46.752;23.576;2022-08-19T14:58:41;95962.05;;;45.23;13.96
61357;BME280;47227;46.752;23.576;2022-08-19T15:01:10;95963.09;;;45.20;14.06
61357;BME280;47227;46.752;23.576;2022-08-19T15:03:39;95961.05;;;45.27;13.79
61357;BME280;47227;46.752;23.576;2022-08-19T15:06:09;95960.67;;;45.48;13.72
61357;BME280;47227;46.752;23.576;2022-08-19T15:08:41;95958.13;;;45.41;14.08
61357;BME280;47227;46.752;23.576;2022-08-19T15:11:13;95958.05;;;45.29;13.97
61357;BME280;47227;46.752;23.576;2022-08-19T15:13:43;95954.56;;;45.25;14.04
61357;BME280;47227;46.752;23.576;2022-08-19T15:16:14;95957.05;;;45.53;14.16
61357;BME280;47227;46.752;23.576;2022-08-19T15:18:46;95951.63;;;45.28;13.88
61357;BME280;47227;46.752;23.576;2022-08-19T15:21:17;95947.55;;;45.26;14.42
61357;BME280;47227;46.752;23.576;2022-08-19T15:23:56;95948.54;;;45.39;14.17
61357;BME280;47227;46.752;23.576;2022-08-19T15:26:25;95945.49;;;45.41;13.93
61357;BME280;47227;46.752;23.576;2022-08-19T15:28:55;95941.42;;;45.65;14.08
61357;BME280;47227;46.752;23.576;2022-08-19T15:31:23;95939.76;;;45.74;14.02
61357;BME280;47227;46.752;23.576;2022-08-19T15:33:56;95941.53;;;45.57;13.96
61357;BME280;47227;46.752;23.576;2022-08-19T15:36:26;95945.54;;;44.63;14.11
61357;BME280;47227;46.752;23.576;2022-08-19T15:38:55;95948.33;;;44.43;14.43
61357;BME280;47227;46.752;23.576;2022-08-19T15:41:27;95949.19;;;44.50;14.64
61357;BME280;47227;46.752;23.576;2022-08-19T15:44:01;95949.89;;;44.50;14.66
61357;BME280;47227;46.752;23.576;2022-08-19T15:46:33;95949.71;;;44.09;14.71
61357;BME280;47227;46.752;23.576;2022-08-19T15:49:02;95952.48;;;43.55;15.30
61357;BME280;47227;46.752;23.576;2022-08-19T15:51:33;95951.72;;;43.79;15.42
61357;BME280;47227;46.752;23.576;2022-08-19T15:54:04;95949.48;;;43.42;15.29
61357;BME280;47227;46.752;23.576;2022-08-19T15:56:34;95950.04;;;43.46;15.50
61357;BME280;47227;46.752;23.576;2022-08-19T15:59:25;95948.26;;;43.55;15.44
61357;BME280;47227;46.752;23.576;2022-08-19T16:02:15;95944.81;;;43.45;15.52
61357;BME280;47227;46.752;23.576;2022-08-19T16:04:59;95945.50;;;43.57;15.51
61357;BME280;47227;46.752;23.576;2022-08-19T16:07:44;95946.63;;;43.64;15.57
61357;BME280;47227;46.752;23.576;2022-08-19T16:10:14;95943.58;;;43.51;15.43
61357;BME280;47227;46.752;23.576;2022-08-19T16:12:55;95944.81;;;43.24;15.55
61357;BME280;47227;46.752;23.576;2022-08-19T16:15:27;95942.43;;;42.99;15.79
61357;BME280;47227;46.752;23.576;2022-08-19T16:17:56;95942.01;;;42.64;16.14
61357;BME280;47227;46.752;23.576;2022-08-19T16:20:25;95940.98;;;42.47;16.57
61357;BME280;47227;46.752;23.576;2022-08-19T16:22:56;95937.52;;;42.38;16.37
61357;BME280;47227;46.752;23.576;2022-08-19T16:25:25;95931.92;;;42.15;16.52
61357;BME280;47227;46.752;23.576;2022-08-19T16:27:57;95932.38;;;41.71;16.94
61357;BME280;47227;46.752;23.576;2022-08-19T16:30:36;95933.49;;;41.29;17.48
61357;BME280;47227;46.752;23.576;2022-08-19T16:33:06;95931.70;;;40.89;17.93
61357;BME280;47227;46.752;23.576;2022-08-19T16:35:35;95933.95;;;40.66;18.30
61357;BME280;47227;46.752;23.576;2022-08-19T16:38:04;95931.71;;;40.46;18.77
61357;BME280;47227;46.752;23.576;2022-08-19T16:40:34;95930.84;;;39.97;19.13
61357;BME280;47227;46.752;23.576;2022-08-19T16:43:02;95930.68;;;39.60;19.85
61357;BME280;47227;46.752;23.576;2022-08-19T16:45:31;95935.26;;;39.18;20.42
61357;BME280;47227;46.752;23.576;2022-08-19T16:47:58;95938.85;;;38.75;20.93
61357;BME280;47227;46.752;23.576;2022-08-19T16:50:26;95932.80;;;38.30;21.24
61357;BME280;47227;46.752;23.576;2022-08-19T16:53:16;95931.48;;;37.73;21.67
61357;BME280;47227;46.752;23.576;2022-08-19T16:55:47;95927.58;;;37.25;22.15
61357;BME280;47227;46.752;23.576;2022-08-19T16:58:17;95919.83;;;36.58;23.03
61357;BME280;47227;46.752;23.576;2022-08-19T17:00:45;95918.27;;;36.02;23.69
61357;BME280;47227;46.752;23.576;2022-08-19T17:03:16;95917.63;;;35.65;23.57
61357;BME280;47227;46.752;23.576;2022-08-19T17:05:46;95918.69;;;35.28;24.01
61357;BME280;47227;46.752;23.576;2022-08-19T17:08:15;95923.31;;;34.85;24.48
61357;BME280;47227;46.752;23.576;2022-08-19T17:10:45;95924.73;;;34.37;24.85
61357;BME280;47227;46.752;23.576;2022-08-19T17:13:33;95929.54;;;33.85;25.50
61357;BME280;47227;46.752;23.576;2022-08-19T17:16:01;95931.95;;;33.37;26.15
61357;BME280;47227;46.752;23.576;2022-08-19T17:18:30;95929.13;;;32.97;26.44
61357;BME280;47227;46.752;23.576;2022-08-19T17:20:59;95928.88;;;32.58;27.38
61357;BME280;47227;46.752;23.576;2022-08-19T17:23:28;95928.73;;;32.16;28.18
61357;BME280;47227;46.752;23.576;2022-08-19T17:26:12;95932.73;;;31.71;28.69
61357;BME280;47227;46.752;23.576;2022-08-19T17:28:56;95935.92;;;31.32;29.01
61357;BME280;47227;46.752;23.576;2022-08-19T17:31:27;95939.14;;;30.98;29.49
61357;BME280;47227;46.752;23.576;2022-08-19T17:33:56;95940.98;;;30.61;30.72
61357;BME280;47227;46.752;23.576;2022-08-19T17:36:27;95938.38;;;30.27;31.09
61357;BME280;47227;46.752;23.576;2022-08-19T17:38:58;95936.72;;;29.99;31.46
61357;BME280;47227;46.752;23.576;2022-08-19T17:41:27;95938.29;;;29.79;31.33
61357;BME280;47227;46.752;23.576;2022-08-19T17:43:57;95936.02;;;29.60;31.34
61357;BME280;47227;46.752;23.576;2022-08-19T17:46:25;95943.17;;;29.41;31.33
61357;BME280;47227;46.752;23.576;2022-08-19T17:48:53;95945.45;;;29.22;31.24
61357;BME280;47227;46.752;23.576;2022-08-19T17:51:44;95950.26;;;29.04;31.87
61357;BME280;47227;46.752;23.576;2022-08-19T17:54:15;95953.54;;;28.81;32.35
61357;BME280;47227;46.752;23.576;2022-08-19T17:56:45;95953.14;;;28.60;32.07
61357;BME280;47227;46.752;23.576;2022-08-19T17:59:14;95952.42;;;28.43;32.55
61357;BME280;47227;46.752;23.576;2022-08-19T18:01:44;95954.00;;;28.24;33.72
61357;BME280;47227;46.752;23.576;2022-08-19T18:04:24;95953.38;;;28.02;34.10
61357;BME280;47227;46.752;23.576;2022-08-19T18:06:53;95950.98;;;27.81;35.17
61357;BME280;47227;46.752;23.576;2022-08-19T18:09:24;95948.80;;;27.62;34.51
61357;BME280;47227;46.752;23.576;2022-08-19T18:11:54;95946.36;;;27.46;34.25
61357;BME280;47227;46.752;23.576;2022-08-19T18:14:27;95952.71;;;27.32;34.36
61357;BME280;47227;46.752;23.576;2022-08-19T18:17:04;95953.79;;;27.18;34.59
61357;BME280;47227;46.752;23.576;2022-08-19T18:19:38;95953.69;;;27.06;34.90
61357;BME280;47227;46.752;23.576;2022-08-19T18:24:56;95958.45;;;26.86;35.28
61357;BME280;47227;46.752;23.576;2022-08-19T18:33:36;95965.67;;;26.54;35.92
61357;BME280;47227;46.752;23.576;2022-08-19T18:36:20;95964.15;;;26.43;37.31
61357;BME280;47227;46.752;23.576;2022-08-19T18:39:41;95957.71;;;26.31;36.99
61357;BME280;47227;46.752;23.576;2022-08-19T18:42:43;95961.19;;;26.19;37.14
61357;BME280;47227;46.752;23.576;2022-08-19T18:49:05;95969.43;;;25.96;37.75
61357;BME280;47227;46.752;23.576;2022-08-19T18:51:37;95972.27;;;25.89;38.25
61357;BME280;47227;46.752;23.576;2022-08-19T18:54:48;95972.32;;;25.80;38.73
61357;BME280;47227;46.752;23.576;2022-08-19T18:58:04;95973.57;;;25.70;39.21
61357;BME280;47227;46.752;23.576;2022-08-19T19:01:16;95977.79;;;25.59;40.93
61357;BME280;47227;46.752;23.576;2022-08-19T19:03:49;95975.77;;;25.47;40.13
61357;BME280;47227;46.752;23.576;2022-08-19T19:06:22;95980.54;;;25.37;41.57
61357;BME280;47227;46.752;23.576;2022-08-19T19:08:56;95985.15;;;25.27;40.86
61357;BME280;47227;46.752;23.576;2022-08-19T19:11:46;95985.52;;;25.14;43.60
61357;BME280;47227;46.752;23.576;2022-08-19T19:14:49;95979.16;;;24.92;45.16
61357;BME280;47227;46.752;23.576;2022-08-19T19:17:25;95981.30;;;24.85;44.14
61357;BME280;47227;46.752;23.576;2022-08-19T19:20:13;95981.95;;;24.80;44.14
61357;BME280;47227;46.752;23.576;2022-08-19T19:23:10;95980.75;;;24.75;43.20
61357;BME280;47227;46.752;23.576;2022-08-19T19:25:43;95984.46;;;24.70;42.89